createdAt,value
2023-04-12T00:01:14.328Z,3.03
2023-04-12T00:03:21.022Z,2.97
2023-04-12T00:05:27.586Z,2.60
2023-04-12T00:07:30.344Z,3.03
2023-04-12T00:09:36.553Z,2.60
2023-04-12T00:11:39.247Z,3.55
2023-04-12T00:13:41.971Z,2.97
2023-04-12T00:15:46.183Z,3.38
2023-04-12T00:17:48.875Z,3.60
2023-04-12T00:19:51.532Z,3.35
2023-04-12T00:21:54.247Z,4.80
2023-04-12T00:23:57.404Z,2.90
2023-04-12T00:26:00.300Z,2.72
2023-04-12T00:28:02.946Z,3.03
2023-04-12T00:30:07.621Z,2.88
2023-04-12T00:32:10.395Z,2.60
2023-04-12T00:34:13.038Z,3.72
2023-04-12T00:36:16.136Z,4.00
2023-04-12T00:38:19.177Z,2.83
2023-04-12T00:40:22.464Z,3.47
2023-04-12T00:42:25.285Z,3.78
2023-04-12T00:44:27.926Z,3.58
2023-04-12T00:46:31.256Z,3.63
2023-04-12T00:48:34.418Z,3.53
2023-04-12T00:50:37.114Z,2.83
2023-04-12T00:52:40.309Z,3.05
2023-04-12T00:54:44.465Z,3.92
2023-04-12T00:56:47.465Z,3.35
2023-04-12T00:58:50.276Z,3.60
2023-04-12T01:00:56.008Z,3.25
2023-04-12T01:02:59.532Z,3.17
2023-04-12T01:05:03.188Z,3.05
2023-04-12T01:07:45.228Z,3.33
2023-04-12T01:09:59.081Z,3.60
2023-04-12T01:12:09.116Z,3.17
2023-04-12T01:14:33.119Z,3.25
2023-04-12T01:16:47.945Z,2.80
2023-04-12T01:18:52.343Z,3.35
2023-04-12T01:21:08.199Z,3.15
2023-04-12T01:23:48.210Z,2.55
2023-04-12T01:26:24.603Z,3.50
2023-04-12T01:28:34.927Z,3.15
2023-04-12T01:30:39.652Z,2.70
2023-04-12T01:32:45.824Z,3.38
2023-04-12T01:34:49.380Z,3.28
2023-04-12T01:36:53.279Z,3.20
2023-04-12T01:38:56.992Z,3.38
2023-04-12T01:41:00.592Z,3.22
2023-04-12T01:43:11.829Z,3.50
2023-04-12T01:45:14.629Z,2.50
2023-04-12T01:47:17.503Z,3.22
2023-04-12T01:49:22.515Z,3.08
2023-04-12T01:51:51.288Z,3.03
2023-04-12T01:54:11.233Z,3.63
2023-04-12T01:56:17.013Z,3.08
2023-04-12T01:58:22.950Z,2.85
2023-04-12T02:00:27.915Z,4.13
2023-04-12T02:02:31.141Z,3.38
2023-04-12T02:04:38.604Z,3.65
2023-04-12T02:06:42.808Z,2.85
2023-04-12T02:08:45.958Z,3.25
2023-04-12T02:10:48.615Z,4.05
2023-04-12T02:12:51.865Z,3.58
2023-04-12T02:14:54.670Z,3.58
2023-04-12T02:16:58.676Z,3.90
2023-04-12T02:19:01.493Z,4.10
2023-04-12T02:21:04.321Z,3.83
2023-04-12T02:23:07.002Z,3.72
2023-04-12T02:25:09.921Z,3.50
2023-04-12T02:27:12.600Z,4.03
2023-04-12T02:29:15.234Z,3.70
2023-04-12T02:31:18.884Z,3.63
2023-04-12T02:33:28.490Z,4.57
2023-04-12T02:35:32.382Z,3.28
2023-04-12T02:37:35.044Z,4.15
2023-04-12T02:39:37.701Z,3.65
2023-04-12T02:41:40.546Z,3.60
2023-04-12T02:43:43.225Z,3.70
2023-04-12T02:45:47.122Z,4.30
2023-04-12T02:47:49.837Z,4.32
2023-04-12T02:49:52.520Z,3.00
2023-04-12T02:51:55.861Z,3.53
2023-04-12T02:53:58.668Z,3.70
2023-04-12T02:56:01.833Z,3.47
2023-04-12T02:58:04.492Z,3.58
2023-04-12T03:00:17.044Z,3.72
2023-04-12T03:02:21.373Z,3.63
2023-04-12T03:04:30.156Z,3.72
2023-04-12T03:06:33.160Z,3.33
2023-04-12T03:08:36.432Z,3.63
2023-04-12T03:10:39.589Z,3.70
2023-04-12T03:12:42.363Z,3.45
2023-04-12T03:14:44.954Z,3.85
2023-04-12T03:16:49.294Z,3.92
2023-04-12T03:18:52.158Z,2.90
2023-04-12T03:20:54.739Z,3.25
2023-04-12T03:22:57.462Z,3.53
2023-04-12T03:25:00.130Z,3.70
2023-04-12T03:27:04.069Z,3.60
2023-04-12T03:29:10.090Z,3.95
2023-04-12T03:31:14.022Z,3.85
2023-04-12T03:33:16.745Z,3.33
2023-04-12T03:35:19.643Z,3.38
2023-04-12T03:37:22.307Z,3.13
2023-04-12T03:39:25.239Z,3.78
2023-04-12T03:41:29.121Z,2.92
2023-04-12T03:43:36.112Z,3.50
2023-04-12T03:45:38.875Z,3.58
2023-04-12T03:47:42.061Z,3.50
2023-04-12T03:49:51.395Z,3.00
2023-04-12T03:52:00.442Z,3.90
2023-04-12T03:54:03.124Z,3.60
2023-04-12T03:56:06.106Z,3.15
2023-04-12T03:58:08.700Z,3.03
2023-04-12T04:00:12.691Z,3.28
2023-04-12T04:02:16.135Z,3.33
2023-04-12T04:04:19.136Z,2.80
2023-04-12T04:06:22.134Z,3.55
2023-04-12T04:08:24.798Z,3.20
2023-04-12T04:10:28.425Z,3.45
2023-04-12T04:12:31.399Z,3.20
2023-04-12T04:14:37.045Z,3.05
2023-04-12T04:16:40.848Z,3.53
2023-04-12T04:18:43.820Z,3.85
2023-04-12T04:20:46.542Z,3.47
2023-04-12T04:22:49.203Z,4.05
2023-04-12T04:24:51.943Z,3.05
2023-04-12T04:26:54.764Z,3.13
2023-04-12T04:29:01.875Z,3.50
2023-04-12T04:31:06.543Z,3.58
2023-04-12T04:33:09.208Z,3.92
2023-04-12T04:35:12.491Z,3.47
2023-04-12T04:37:16.253Z,4.03
2023-04-12T04:39:18.839Z,3.80
2023-04-12T04:41:22.942Z,3.63
2023-04-12T04:43:26.508Z,3.90
2023-04-12T04:45:30.711Z,3.70
2023-04-12T04:47:33.463Z,4.32
2023-04-12T04:49:39.105Z,4.55
2023-04-12T04:51:41.763Z,4.22
2023-04-12T04:53:44.780Z,4.10
2023-04-12T04:55:47.959Z,4.00
2023-04-12T04:57:51.299Z,4.20
2023-04-12T04:59:54.028Z,4.13
2023-04-12T05:01:56.665Z,3.65
2023-04-12T05:03:59.712Z,3.95
2023-04-12T05:06:03.547Z,2.92
2023-04-12T05:08:06.391Z,3.60
2023-04-12T05:10:10.074Z,4.75
2023-04-12T05:12:12.737Z,3.78
2023-04-12T05:14:15.943Z,3.50
2023-04-12T05:16:20.049Z,3.65
2023-04-12T05:18:24.674Z,4.10
2023-04-12T05:20:29.241Z,3.53
2023-04-12T05:22:33.077Z,3.25
2023-04-12T05:24:37.074Z,3.83
2023-04-12T05:26:41.074Z,3.45
2023-04-12T05:28:44.929Z,2.85
2023-04-12T05:30:48.532Z,3.17
2023-04-12T05:32:51.726Z,3.22
2023-04-12T05:34:55.100Z,2.88
2023-04-12T05:36:59.788Z,2.83
2023-04-12T05:39:03.144Z,3.75
2023-04-12T05:41:06.682Z,3.55
2023-04-12T05:43:13.756Z,3.13
2023-04-12T05:45:16.456Z,2.67
2023-04-12T05:47:19.454Z,3.63
2023-04-12T05:49:26.163Z,2.53
2023-04-12T05:51:40.501Z,2.72
2023-04-12T05:53:44.534Z,2.63
2023-04-12T05:55:48.666Z,2.63
2023-04-12T05:57:53.299Z,2.47
2023-04-12T05:59:56.541Z,2.42
2023-04-12T06:02:00.784Z,2.42
2023-04-12T06:04:04.535Z,2.35
2023-04-12T06:06:08.329Z,2.33
2023-04-12T06:08:13.307Z,1.90
2023-04-12T06:10:17.869Z,2.35
2023-04-12T06:12:21.556Z,2.55
2023-04-12T06:14:24.670Z,2.17
2023-04-12T06:16:28.305Z,2.72
2023-04-12T06:18:31.761Z,2.17
2023-04-12T06:20:34.699Z,1.90
2023-04-12T06:22:38.396Z,3.13
2023-04-12T06:24:41.836Z,2.13
2023-04-12T06:26:47.192Z,1.70
2023-04-12T06:28:50.136Z,1.95
2023-04-12T06:30:54.117Z,1.52
2023-04-12T06:32:57.044Z,1.67
2023-04-12T06:34:59.769Z,1.55
2023-04-12T06:37:02.494Z,1.52
2023-04-12T06:39:05.240Z,1.77
2023-04-12T06:41:07.960Z,1.65
2023-04-12T06:43:10.595Z,1.63
2023-04-12T06:45:13.274Z,2.10
2023-04-12T06:47:16.197Z,1.95
2023-04-12T06:49:19.970Z,1.80
2023-04-12T06:51:22.967Z,1.52
2023-04-12T06:53:26.019Z,2.00
2023-04-12T06:55:29.469Z,2.47
2023-04-12T06:57:32.190Z,2.47
2023-04-12T06:59:35.143Z,2.47
2023-04-12T07:01:37.986Z,2.92
2023-04-12T07:03:41.266Z,2.17
2023-04-12T07:05:45.244Z,2.00
2023-04-12T07:07:47.906Z,2.33
2023-04-12T07:09:52.430Z,2.60
2023-04-12T07:11:55.060Z,2.22
2023-04-12T07:13:59.361Z,2.50
2023-04-12T07:16:02.208Z,2.78
2023-04-12T07:18:05.021Z,2.33
2023-04-12T07:20:08.221Z,2.50
2023-04-12T07:22:12.529Z,1.83
2023-04-12T07:24:16.704Z,2.08
2023-04-12T07:26:19.639Z,2.65
2023-04-12T07:28:22.317Z,2.08
2023-04-12T07:30:25.825Z,2.75
2023-04-12T07:32:28.745Z,3.15
2023-04-12T07:34:31.731Z,3.17
2023-04-12T07:36:34.484Z,2.97
2023-04-12T07:38:37.233Z,2.90
2023-04-12T07:40:40.194Z,3.20
2023-04-12T07:42:42.988Z,3.50
2023-04-12T07:44:45.748Z,2.92
2023-04-12T07:46:48.455Z,3.90
2023-04-12T07:48:52.002Z,3.70
2023-04-12T07:50:54.702Z,2.83
2023-04-12T07:53:20.625Z,3.42
2023-04-12T07:55:23.432Z,3.88
2023-04-12T07:57:27.060Z,3.70
2023-04-12T07:59:30.872Z,3.83
2023-04-12T08:01:33.683Z,3.53
2023-04-12T08:03:36.695Z,3.58
2023-04-12T08:05:41.052Z,3.90
2023-04-12T08:07:44.270Z,4.20
2023-04-12T08:09:47.501Z,4.10
2023-04-12T08:11:50.209Z,3.63
2023-04-12T08:13:53.901Z,3.28
2023-04-12T08:15:56.657Z,4.10
2023-04-12T08:17:59.616Z,3.55
2023-04-12T08:20:04.775Z,3.03
2023-04-12T08:22:08.508Z,3.30
2023-04-12T08:24:11.248Z,4.05
2023-04-12T08:26:13.846Z,3.45
2023-04-12T08:28:17.031Z,3.60
2023-04-12T08:30:20.018Z,3.80
2023-04-12T08:32:23.975Z,3.58
2023-04-12T08:34:28.089Z,3.85
2023-04-12T08:36:31.073Z,3.00
2023-04-12T08:38:44.809Z,3.70
2023-04-12T08:40:48.715Z,3.97
2023-04-12T08:42:53.153Z,4.18
2023-04-12T08:44:55.937Z,3.70
2023-04-12T08:46:58.860Z,4.07
2023-04-12T08:49:01.516Z,3.72
2023-04-12T08:51:05.242Z,3.60
2023-04-12T08:53:11.042Z,3.85
2023-04-12T08:55:13.991Z,3.58
2023-04-12T08:57:19.373Z,3.90
2023-04-12T08:59:22.889Z,4.28
2023-04-12T09:01:26.177Z,3.30
2023-04-12T09:03:32.899Z,3.92
2023-04-12T09:05:36.536Z,3.90
2023-04-12T09:07:39.290Z,3.92
2023-04-12T09:09:46.811Z,3.67
2023-04-12T09:11:49.642Z,4.07
2023-04-12T09:13:53.903Z,4.15
2023-04-12T09:15:56.661Z,3.92
2023-04-12T09:18:16.651Z,4.18
2023-04-12T09:20:21.772Z,4.90
2023-04-12T09:22:40.135Z,4.20
2023-04-12T09:24:48.820Z,3.88
2023-04-12T09:27:07.655Z,4.25
2023-04-12T09:29:26.020Z,4.80
2023-04-12T09:31:28.966Z,4.80
2023-04-12T09:33:39.651Z,3.90
2023-04-12T09:35:43.315Z,3.88
2023-04-12T09:37:46.520Z,3.78
2023-04-12T09:40:00.587Z,4.22
2023-04-12T09:42:18.122Z,3.72
2023-04-12T09:44:30.834Z,4.28
2023-04-12T09:46:34.207Z,3.95
2023-04-12T09:48:39.373Z,3.90
2023-04-12T09:50:42.872Z,3.83
2023-04-12T09:52:46.097Z,4.25
2023-04-12T09:54:49.004Z,4.32
2023-04-12T09:56:52.092Z,4.47
2023-04-12T09:58:55.783Z,4.57
2023-04-12T10:01:02.941Z,4.47
2023-04-12T10:03:07.502Z,4.50
2023-04-12T10:05:13.704Z,4.45
2023-04-12T10:07:17.347Z,4.25
2023-04-12T10:09:20.018Z,4.32
2023-04-12T10:11:22.743Z,4.13
2023-04-12T10:13:27.291Z,3.53
2023-04-12T10:15:30.716Z,3.88
2023-04-12T10:17:36.061Z,3.72
2023-04-12T10:19:40.271Z,4.22
2023-04-12T10:21:43.179Z,5.18
2023-04-12T10:23:47.461Z,3.95
2023-04-12T10:25:50.592Z,4.40
2023-04-12T10:27:53.871Z,3.42
2023-04-12T10:30:23.698Z,4.32
2023-04-12T10:32:27.063Z,4.88
2023-04-12T10:34:32.812Z,4.20
2023-04-12T10:36:56.931Z,3.85
2023-04-12T10:39:11.282Z,4.25
2023-04-12T10:41:21.098Z,4.07
2023-04-12T10:43:23.995Z,3.95
2023-04-12T10:45:32.543Z,4.18
2023-04-12T10:47:50.793Z,4.20
2023-04-12T10:50:32.526Z,3.95
2023-04-12T10:52:39.387Z,4.15
2023-04-12T10:54:42.396Z,4.50
2023-04-12T10:56:46.818Z,3.97
2023-04-12T10:58:49.696Z,3.42
2023-04-12T11:00:58.916Z,3.33
2023-04-12T11:03:07.882Z,3.47
2023-04-12T11:05:11.737Z,3.78
2023-04-12T11:07:14.907Z,3.78
2023-04-12T11:09:19.038Z,3.53
2023-04-12T11:11:22.989Z,4.10
2023-04-12T11:13:27.632Z,3.90
2023-04-12T11:15:34.278Z,4.07
2023-04-12T11:17:37.917Z,3.95
2023-04-12T11:19:49.363Z,4.50
2023-04-12T11:21:52.402Z,3.75
2023-04-12T11:23:55.956Z,3.75
2023-04-12T11:25:59.372Z,3.05
2023-04-12T11:28:02.716Z,3.88
2023-04-12T11:30:07.602Z,4.25
2023-04-12T11:32:16.051Z,4.13
2023-04-12T11:34:20.167Z,4.57
2023-04-12T11:36:22.982Z,3.72
2023-04-12T11:38:25.982Z,3.42
2023-04-12T11:40:28.868Z,4.00
2023-04-12T11:42:33.080Z,3.50
2023-04-12T11:44:52.489Z,3.42
2023-04-12T11:46:58.773Z,4.35
2023-04-12T11:49:01.737Z,3.45
2023-04-12T11:51:25.480Z,3.28
2023-04-12T11:53:32.231Z,3.30
2023-04-12T11:55:34.971Z,4.30
2023-04-12T11:57:39.266Z,3.35
2023-04-12T11:59:45.314Z,4.40
2023-04-12T12:01:51.725Z,3.78
2023-04-12T12:03:55.441Z,3.88
2023-04-12T12:05:59.021Z,3.88
2023-04-12T12:08:06.380Z,4.32
2023-04-12T12:10:09.987Z,3.22
2023-04-12T12:12:13.709Z,3.72
2023-04-12T12:14:20.985Z,3.85
2023-04-12T12:16:28.578Z,3.78
2023-04-12T12:18:31.625Z,4.07
2023-04-12T12:20:40.273Z,3.20
2023-04-12T12:22:47.625Z,4.45
2023-04-12T12:24:59.625Z,4.50
2023-04-12T12:27:03.659Z,4.00
2023-04-12T12:29:09.372Z,4.07
2023-04-12T12:31:12.744Z,4.32
2023-04-12T12:33:23.146Z,4.50
2023-04-12T12:35:34.737Z,4.43
2023-04-12T12:37:37.658Z,4.30
2023-04-12T12:39:40.489Z,4.22
2023-04-12T12:41:43.221Z,4.30
2023-04-12T12:43:53.255Z,3.85
2023-04-12T12:45:56.120Z,4.28
2023-04-12T12:48:04.082Z,4.20
2023-04-12T12:50:07.371Z,4.15
2023-04-12T12:52:10.124Z,3.95
2023-04-12T12:54:12.817Z,4.13
2023-04-12T12:56:16.331Z,4.63
2023-04-12T12:58:19.077Z,3.90
2023-04-12T13:00:24.954Z,3.75
2023-04-12T13:02:27.799Z,3.90
2023-04-12T13:04:30.874Z,4.38
2023-04-12T13:06:33.716Z,4.18
2023-04-12T13:08:37.483Z,3.42
2023-04-12T13:10:40.319Z,5.03
2023-04-12T13:12:43.237Z,4.15
2023-04-12T13:14:46.258Z,3.90
2023-04-12T13:16:49.515Z,3.83
2023-04-12T13:18:52.612Z,4.20
2023-04-12T13:20:55.382Z,4.20
2023-04-12T13:22:58.178Z,4.18
2023-04-12T13:25:02.146Z,4.35
2023-04-12T13:27:08.602Z,4.40
2023-04-12T13:29:11.237Z,3.65
2023-04-12T13:31:13.988Z,4.10
2023-04-12T13:33:20.121Z,4.20
2023-04-12T13:35:24.571Z,4.40
2023-04-12T13:37:27.519Z,4.07
2023-04-12T13:39:33.096Z,4.47
2023-04-12T13:41:36.362Z,4.20
2023-04-12T13:43:39.032Z,4.10
2023-04-12T13:45:41.840Z,4.53
2023-04-12T13:47:44.639Z,3.78
2023-04-12T13:49:47.491Z,4.35
2023-04-12T13:51:50.658Z,3.83
2023-04-12T13:53:53.712Z,4.32
2023-04-12T13:55:57.595Z,4.68
2023-04-12T13:58:00.311Z,4.45
2023-04-12T14:00:03.063Z,4.63
2023-04-12T14:02:06.685Z,4.03
2023-04-12T14:04:09.560Z,4.85
2023-04-12T14:06:12.362Z,4.75
2023-04-12T14:08:15.159Z,5.22
2023-04-12T14:10:18.219Z,4.20
2023-04-12T14:12:21.170Z,4.57
2023-04-12T14:14:25.604Z,4.80
2023-04-12T14:16:28.334Z,4.72
2023-04-12T14:18:31.053Z,4.97
2023-04-12T14:20:33.811Z,4.07
2023-04-12T14:22:37.158Z,4.63
2023-04-12T14:24:40.401Z,5.32
2023-04-12T14:26:43.183Z,4.65
2023-04-12T14:28:45.814Z,4.18
2023-04-12T14:30:51.676Z,4.53
2023-04-12T14:32:54.624Z,4.50
2023-04-12T14:34:57.514Z,4.63
2023-04-12T14:37:00.746Z,4.43
2023-04-12T14:39:04.211Z,4.65
2023-04-12T14:41:08.976Z,3.65
2023-04-12T14:43:11.786Z,3.83
2023-04-12T14:45:15.670Z,4.72
2023-04-12T14:47:18.585Z,4.38
2023-04-12T14:49:21.399Z,5.53
2023-04-12T14:51:24.328Z,4.63
2023-04-12T14:53:27.352Z,4.47
2023-04-12T14:55:30.238Z,4.63
2023-04-12T14:57:35.704Z,4.72
2023-04-12T14:59:38.573Z,4.25
2023-04-12T15:01:42.221Z,4.70
2023-04-12T15:03:46.186Z,4.50
2023-04-12T15:05:49.037Z,5.50
2023-04-12T15:07:51.831Z,5.47
2023-04-12T15:09:55.638Z,4.78
2023-04-12T15:12:01.594Z,5.30
2023-04-12T15:14:05.351Z,4.40
2023-04-12T15:16:09.419Z,5.03
2023-04-12T15:18:12.234Z,4.53
2023-04-12T15:20:17.440Z,5.22
2023-04-12T15:22:20.381Z,3.67
2023-04-12T15:24:24.020Z,6.15
2023-04-12T15:26:26.735Z,5.63
2023-04-12T15:28:29.990Z,5.78
2023-04-12T15:30:32.680Z,5.30
2023-04-12T15:32:39.806Z,5.57
2023-04-12T15:34:44.195Z,4.85
2023-04-12T15:36:46.992Z,6.35
2023-04-12T15:38:51.614Z,5.45
2023-04-12T15:40:59.460Z,4.95
2023-04-12T15:43:02.482Z,5.45
2023-04-12T15:45:05.815Z,5.28
2023-04-12T15:47:11.670Z,5.68
2023-04-12T15:49:15.065Z,6.10
2023-04-12T15:51:17.887Z,5.90
2023-04-12T15:53:22.576Z,5.85
2023-04-12T15:55:25.471Z,5.68
2023-04-12T15:57:28.583Z,6.32
2023-04-12T15:59:32.186Z,6.28
2023-04-12T16:01:36.122Z,6.57
2023-04-12T16:03:39.217Z,5.57
2023-04-12T16:05:44.501Z,6.40
2023-04-12T16:07:51.180Z,6.40
2023-04-12T16:09:54.100Z,5.82
2023-04-12T16:11:57.922Z,6.57
2023-04-12T16:14:02.502Z,8.10
2023-04-12T16:16:06.173Z,6.18
2023-04-12T16:18:09.444Z,5.53
2023-04-12T16:20:17.043Z,6.45
2023-04-12T16:22:21.065Z,5.68
2023-04-12T16:24:23.926Z,5.68
2023-04-12T16:26:27.690Z,5.53
2023-04-12T16:28:30.806Z,6.45
2023-04-12T16:30:34.414Z,5.35
2023-04-12T16:32:38.786Z,6.88
2023-04-12T16:34:43.109Z,5.82
2023-04-12T16:36:46.199Z,6.93
2023-04-12T16:38:49.797Z,5.72
2023-04-12T16:40:52.703Z,5.25
2023-04-12T16:42:56.128Z,5.57
2023-04-12T16:44:59.190Z,5.65
2023-04-12T16:47:02.189Z,5.75
2023-04-12T16:49:06.028Z,5.40
2023-04-12T16:51:09.108Z,5.72
2023-04-12T16:53:12.546Z,5.65
2023-04-12T16:55:16.231Z,5.90
2023-04-12T16:57:19.153Z,5.63
2023-04-12T16:59:22.280Z,5.13
2023-04-12T17:01:25.212Z,6.10
2023-04-12T17:03:28.473Z,5.50
2023-04-12T17:05:32.792Z,4.90
2023-04-12T17:07:35.828Z,6.00
2023-04-12T17:09:38.608Z,5.25
2023-04-12T17:11:41.629Z,5.13
2023-04-12T17:13:44.930Z,5.10
2023-04-12T17:15:50.595Z,5.45
2023-04-12T17:18:00.467Z,4.85
2023-04-12T17:20:06.357Z,5.40
2023-04-12T17:22:10.303Z,5.22
2023-04-12T17:24:16.698Z,4.55
2023-04-12T17:26:26.124Z,4.53
2023-04-12T17:28:43.937Z,4.95
2023-04-12T17:30:48.471Z,5.82
2023-04-12T17:32:52.299Z,5.68
2023-04-12T17:34:55.525Z,4.97
2023-04-12T17:37:00.063Z,5.43
2023-04-12T17:39:05.353Z,5.22
2023-04-12T17:41:09.681Z,4.53
2023-04-12T17:43:13.130Z,5.10
2023-04-12T17:45:17.850Z,5.20
2023-04-12T17:47:21.138Z,4.75
2023-04-12T17:49:25.732Z,5.22
2023-04-12T17:51:29.819Z,5.10
2023-04-12T17:53:32.791Z,5.10
2023-04-12T17:55:38.171Z,4.95
2023-04-12T17:57:42.145Z,5.05
2023-04-12T17:59:44.927Z,5.47
2023-04-12T18:01:47.815Z,5.40
2023-04-12T18:03:50.807Z,5.28
2023-04-12T18:05:55.810Z,5.03
2023-04-12T18:07:59.770Z,5.13
2023-04-12T18:10:03.488Z,5.63
2023-04-12T18:12:06.732Z,5.45
2023-04-12T18:14:11.148Z,5.53
2023-04-12T18:16:14.323Z,5.20
2023-04-12T18:18:17.165Z,5.60
2023-04-12T18:20:20.086Z,4.65
2023-04-12T18:22:22.924Z,5.03
2023-04-12T18:24:35.438Z,5.05
2023-04-12T18:26:39.228Z,5.40
2023-04-12T18:28:42.176Z,5.25
2023-04-12T18:30:44.931Z,5.18
2023-04-12T18:32:48.141Z,5.22
2023-04-12T18:35:02.568Z,4.72
2023-04-12T18:37:19.836Z,4.72
2023-04-12T18:39:36.342Z,4.38
2023-04-12T18:42:03.310Z,4.75
2023-04-12T18:44:44.189Z,5.35
2023-04-12T18:47:15.608Z,4.95
2023-04-12T18:49:29.945Z,5.22
2023-04-12T18:51:50.160Z,4.90
2023-04-12T18:53:58.616Z,5.13
2023-04-12T18:56:18.489Z,6.10
2023-04-12T18:58:29.767Z,4.78
2023-04-12T19:00:47.017Z,5.25
2023-04-12T19:03:01.298Z,5.50
2023-04-12T19:05:11.912Z,5.32
2023-04-12T19:07:14.875Z,5.20
2023-04-12T19:09:17.715Z,5.40
2023-04-12T19:11:20.395Z,5.18
2023-04-12T19:13:23.353Z,5.35
2023-04-12T19:15:26.073Z,6.57
2023-04-12T19:17:29.729Z,5.63
2023-04-12T19:19:32.441Z,6.03
2023-04-12T19:21:35.714Z,4.80
2023-04-12T19:23:38.407Z,4.97
2023-04-12T19:25:41.391Z,4.90
2023-04-12T19:27:44.094Z,5.70
2023-04-12T19:29:46.868Z,6.20
2023-04-12T19:31:49.947Z,5.47
2023-04-12T19:33:54.048Z,5.53
2023-04-12T19:35:56.892Z,5.65
2023-04-12T19:37:59.998Z,5.32
2023-04-12T19:40:02.800Z,4.53
2023-04-12T19:42:05.644Z,6.05
2023-04-12T19:44:08.343Z,4.53
2023-04-12T19:46:12.026Z,6.03
2023-04-12T19:48:14.783Z,5.97
2023-04-12T19:50:17.949Z,5.07
2023-04-12T19:52:22.123Z,5.22
2023-04-12T19:54:25.732Z,5.25
2023-04-12T19:56:30.699Z,5.55
2023-04-12T19:58:33.668Z,5.90
2023-04-12T20:00:39.350Z,5.32
2023-04-12T20:02:42.616Z,5.63
2023-04-12T20:04:45.219Z,5.78
2023-04-12T20:06:52.057Z,5.57
2023-04-12T20:08:54.691Z,5.80
2023-04-12T20:10:57.341Z,6.38
2023-04-12T20:13:00.118Z,6.00
2023-04-12T20:15:04.580Z,6.43
2023-04-12T20:17:08.285Z,4.90
2023-04-12T20:19:12.165Z,5.13
2023-04-12T20:21:14.781Z,5.65
2023-04-12T20:23:17.815Z,6.03
2023-04-12T20:25:20.729Z,6.30
2023-04-12T20:27:23.399Z,5.18
2023-04-12T20:29:26.738Z,5.45
2023-04-12T20:31:29.493Z,6.35
2023-04-12T20:33:32.862Z,6.32
2023-04-12T20:35:35.721Z,7.70
2023-04-12T20:37:38.365Z,6.15
2023-04-12T20:39:41.065Z,7.40
2023-04-12T20:41:50.110Z,7.78
2023-04-12T20:43:52.831Z,8.02
2023-04-12T20:45:55.606Z,7.85
2023-04-12T20:47:58.349Z,6.90
2023-04-12T20:50:18.202Z,7.75
2023-04-12T20:52:20.985Z,7.55
2023-04-12T20:54:26.837Z,8.80
2023-04-12T20:56:29.487Z,8.02
2023-04-12T20:58:35.364Z,7.47
2023-04-12T21:00:40.700Z,7.47
2023-04-12T21:02:45.554Z,7.50
2023-04-12T21:04:48.663Z,7.03
2023-04-12T21:06:55.586Z,7.22
2023-04-12T21:08:59.081Z,8.18
2023-04-12T21:11:02.383Z,8.82
2023-04-12T21:13:05.088Z,9.45
2023-04-12T21:15:08.754Z,6.90
2023-04-12T21:17:11.741Z,6.55
2023-04-12T21:19:18.606Z,6.93
2023-04-12T21:21:21.710Z,7.15
2023-04-12T21:23:24.566Z,6.85
2023-04-12T21:25:27.174Z,6.95
2023-04-12T21:27:30.152Z,7.40
2023-04-12T21:29:34.631Z,7.70
2023-04-12T21:31:39.300Z,7.40
2023-04-12T21:33:42.492Z,6.63
2023-04-12T21:35:45.305Z,5.95
2023-04-12T21:37:47.991Z,6.80
2023-04-12T21:39:50.687Z,6.07
2023-04-12T21:41:53.489Z,6.80
2023-04-12T21:43:56.215Z,6.32
2023-04-12T21:45:58.873Z,6.22
2023-04-12T21:48:01.577Z,5.55
2023-04-12T21:50:04.759Z,6.40
2023-04-12T21:52:07.460Z,6.57
2023-04-12T21:54:10.164Z,6.18
2023-04-12T21:56:12.725Z,6.70
2023-04-12T21:58:15.944Z,6.72
2023-04-12T22:00:18.963Z,7.60
2023-04-12T22:02:21.700Z,8.25
2023-04-12T22:04:24.496Z,8.88
2023-04-12T22:06:27.452Z,8.80
2023-04-12T22:08:30.072Z,8.00
2023-04-12T22:10:34.665Z,6.43
2023-04-12T22:12:37.604Z,5.97
2023-04-12T22:14:46.736Z,6.18
2023-04-12T22:16:51.212Z,6.35
2023-04-12T22:18:55.758Z,6.53
2023-04-12T22:20:59.688Z,6.03
2023-04-12T22:23:03.182Z,6.63
2023-04-12T22:25:08.736Z,6.82
2023-04-12T22:27:11.634Z,5.78
2023-04-12T22:29:17.548Z,6.07
2023-04-12T22:31:23.151Z,6.60
2023-04-12T22:33:26.037Z,6.53
2023-04-12T22:35:30.235Z,6.60
2023-04-12T22:37:35.069Z,6.97
2023-04-12T22:39:37.946Z,5.93
2023-04-12T22:41:42.028Z,5.97
2023-04-12T22:43:47.852Z,5.65
2023-04-12T22:45:54.110Z,5.80
2023-04-12T22:47:57.200Z,6.10
2023-04-12T22:50:01.784Z,5.78
2023-04-12T22:52:06.766Z,6.45
2023-04-12T22:54:10.650Z,6.30
2023-04-12T22:56:13.646Z,6.28
2023-04-12T22:58:16.413Z,5.88
2023-04-12T23:00:19.027Z,6.80
2023-04-12T23:02:21.746Z,7.40
2023-04-12T23:04:24.438Z,6.15
2023-04-12T23:06:27.916Z,6.47
2023-04-12T23:08:31.039Z,6.13
2023-04-12T23:10:34.415Z,6.47
2023-04-12T23:12:37.630Z,6.47
2023-04-12T23:14:40.413Z,6.40
2023-04-12T23:16:44.585Z,6.20
2023-04-12T23:18:48.279Z,7.07
2023-04-12T23:20:51.564Z,6.70
2023-04-12T23:22:57.879Z,6.60
2023-04-12T23:25:02.437Z,6.05
2023-04-12T23:27:06.367Z,6.00
2023-04-12T23:29:09.196Z,6.43
2023-04-12T23:31:12.357Z,6.72
2023-04-12T23:33:20.472Z,6.97
2023-04-12T23:35:23.361Z,6.88
2023-04-12T23:37:25.949Z,6.65
2023-04-12T23:39:28.708Z,6.05
2023-04-12T23:41:32.301Z,6.82
2023-04-12T23:43:35.153Z,6.15
2023-04-12T23:45:38.679Z,5.60
2023-04-12T23:47:41.417Z,6.95
2023-04-12T23:49:44.104Z,6.70
2023-04-12T23:51:47.005Z,5.78
2023-04-12T23:53:50.396Z,6.32
2023-04-12T23:55:53.773Z,6.03
2023-04-12T23:57:56.472Z,6.18
2023-04-12T23:59:59.153Z,6.40
